Time;durP1;ratioP1;P1;durP2;ratioP2;P2;SDS_P1;SDS_P2;PMS_P1;PMS_P2;Temp;Humidity;BMP_temperature;BMP_pressure;BME280_temperature;BME280_humidity;BME280_pressure;Samples;Min_cycle;Max_cycle;Signal;HPM_P1;HPM_P2
2023/04/11 00:02:21;;;;;;;3.50;2.00;;;14.10;99.90;;;13.35;100.00;96949.63;4895993;29;20422;-74
2023/04/11 00:04:47;;;;;;;4.67;2.10;;;14.10;99.90;;;13.28;100.00;96936.66;4898622;29;20419;-75
2023/04/11 00:07:13;;;;;;;3.17;1.88;;;14.00;96.80;;;13.36;100.00;96920.09;4898558;29;20423;-74
2023/04/11 00:09:39;;;;;;;2.00;1.73;;;14.10;99.90;;;13.34;100.00;96900.97;4898349;29;20459;-74
2023/04/11 00:12:06;;;;;;;4.30;2.25;;;14.10;99.90;;;13.45;100.00;96894.50;4898308;29;20429;-74
2023/04/11 00:14:33;;;;;;;4.88;2.08;;;14.10;99.90;;;13.48;100.00;96893.13;4898487;29;20414;-75
2023/04/11 00:17:00;;;;;;;3.42;1.70;;;14.20;99.90;;;13.37;100.00;96889.00;4898540;29;20475;-74
2023/04/11 00:19:27;;;;;;;3.63;1.77;;;14.10;97.30;;;13.39;100.00;96878.84;4898215;29;20451;-74
2023/04/11 00:21:56;;;;;;;5.18;2.03;;;14.10;99.90;;;13.62;100.00;96874.63;4898338;29;20415;-74
2023/04/11 00:24:22;;;;;;;4.40;2.20;;;14.20;99.90;;;13.53;100.00;96893.88;4898219;29;20414;-74
2023/04/11 00:26:48;;;;;;;3.95;1.90;;;14.20;94.90;;;13.44;100.00;96878.81;4896846;29;20431;-75
2023/04/11 00:29:14;;;;;;;4.13;2.25;;;14.20;92.80;;;13.30;99.88;96883.22;4898225;29;20434;-75
2023/04/11 00:31:42;;;;;;;3.22;1.90;;;14.00;91.50;;;13.25;100.00;96875.28;4898386;29;20418;-74
2023/04/11 00:34:07;;;;;;;3.27;1.90;;;14.00;95.60;;;13.22;100.00;96866.00;4898477;29;20525;-75
2023/04/11 00:36:33;;;;;;;3.87;1.80;;;13.90;98.40;;;13.23;100.00;96851.63;4898047;29;20918;-74
2023/04/11 00:39:02;;;;;;;7.00;2.20;;;14.00;99.70;;;13.40;100.00;96869.81;4898102;29;20438;-75
2023/04/11 00:41:30;;;;;;;3.47;2.00;;;14.00;99.90;;;13.40;100.00;96873.25;4897922;29;20419;-75
2023/04/11 00:43:56;;;;;;;2.33;1.70;;;14.10;99.90;;;13.46;100.00;96874.78;4897818;29;20422;-74
2023/04/11 00:46:23;;;;;;;6.80;2.00;;;14.10;99.90;;;13.38;100.00;96874.63;4897973;29;20431;-75
2023/04/11 00:48:51;;;;;;;4.53;2.00;;;14.10;99.90;;;13.34;100.00;96866.41;4896616;29;20419;-74
2023/04/11 00:51:19;;;;;;;6.38;2.00;;;14.10;99.90;;;13.27;100.00;96862.50;4897845;29;20421;-74
2023/04/11 00:53:45;;;;;;;4.88;1.92;;;14.00;96.50;;;13.19;100.00;96853.28;4897832;29;20443;-74
2023/04/11 00:56:11;;;;;;;3.28;2.08;;;13.90;99.50;;;13.15;100.00;96860.22;4897826;29;20415;-74
2023/04/11 00:58:38;;;;;;;6.63;2.10;;;13.90;99.90;;;13.09;100.00;96862.09;4897738;29;20438;-76
2023/04/11 01:01:10;;;;;;;4.22;2.10;;;13.90;99.90;;;13.12;100.00;96861.53;4897411;29;20414;-75
2023/04/11 01:03:38;;;;;;;2.85;2.00;;;13.80;99.90;;;13.22;100.00;96854.59;4897589;29;20419;-75
2023/04/11 01:06:06;;;;;;;6.50;2.30;;;13.90;99.90;;;13.29;100.00;96874.44;4897468;29;20900;-76
2023/04/11 01:08:33;;;;;;;5.63;2.40;;;14.00;96.90;;;13.25;100.00;96872.63;4897439;29;20495;-75
2023/04/11 01:11:00;;;;;;;4.72;2.20;;;14.00;97.50;;;13.28;100.00;96870.22;4897368;29;20775;-75
2023/04/11 01:13:28;;;;;;;2.63;1.92;;;14.00;97.10;;;13.37;100.00;96875.72;4896623;29;20486;-75
2023/04/11 01:15:54;;;;;;;7.57;2.40;;;14.00;97.60;;;13.26;100.00;96877.66;4897334;29;21021;-75
2023/04/11 01:18:20;;;;;;;3.33;2.03;;;14.00;96.40;;;13.35;100.00;96875.97;4897633;29;20848;-75
2023/04/11 01:20:46;;;;;;;3.10;2.00;;;14.10;98.30;;;13.27;100.00;96878.44;4896061;29;20449;-75
2023/04/11 01:23:20;;;;;;;3.60;2.08;;;14.00;98.90;;;13.40;100.00;96869.81;4897058;29;20454;-74
2023/04/11 01:25:46;;;;;;;4.40;2.10;;;14.00;99.90;;;13.32;100.00;96873.06;4897247;29;20512;-75
2023/04/11 01:28:11;;;;;;;3.90;2.08;;;14.00;99.90;;;13.30;100.00;96873.38;4895950;29;20446;-74
2023/04/11 01:30:37;;;;;;;3.30;2.05;;;14.00;99.90;;;13.22;100.00;96887.28;4895724;29;20418;-75
2023/04/11 01:33:03;;;;;;;3.53;2.22;;;13.90;99.90;;;13.00;100.00;96900.19;4897027;29;20486;-74
2023/04/11 01:35:30;;;;;;;4.40;2.50;;;13.80;99.90;;;12.77;100.00;96897.16;4895890;29;20414;-74
2023/04/11 01:37:56;;;;;;;9.05;2.72;;;13.60;99.90;;;12.53;100.00;96884.84;4897069;29;20407;-74
2023/04/11 01:40:23;;;;;;;5.88;2.63;;;13.20;99.90;;;12.37;100.00;96868.22;4896828;29;20774;-74
2023/04/11 01:42:50;;;;;;;4.20;3.05;;;13.20;99.90;;;12.27;100.00;96870.91;4896881;29;20762;-75
2023/04/11 01:45:19;;;;;;;3.25;2.78;;;13.00;99.90;;;12.16;100.00;96867.53;4896786;29;20411;-74
2023/04/11 01:47:45;;;;;;;6.95;3.50;;;13.00;99.90;;;12.05;100.00;96873.16;4896871;29;20411;-74
2023/04/11 01:50:11;;;;;;;6.35;3.22;;;12.90;99.90;;;12.02;100.00;96888.56;4896623;29;20435;-74
2023/04/11 01:52:36;;;;;;;3.65;3.10;;;12.80;99.90;;;11.92;100.00;96901.06;4896721;29;20417;-74
2023/04/11 01:55:03;;;;;;;7.78;3.55;;;12.70;99.90;;;11.87;100.00;96920.47;4896662;29;20419;-74
2023/04/11 01:57:31;;;;;;;7.30;3.10;;;12.60;99.90;;;11.66;100.00;96910.91;4896642;29;20411;-74
2023/04/11 01:59:57;;;;;;;4.43;3.08;;;12.50;99.90;;;11.56;100.00;96908.31;4896430;29;20781;-74
2023/04/11 02:02:24;;;;;;;6.00;3.08;;;12.40;99.90;;;11.45;100.00;96912.03;4896526;29;20447;-74
2023/04/11 02:04:50;;;;;;;5.40;3.30;;;12.30;99.90;;;11.36;100.00;96916.28;4896450;29;20468;-74
2023/04/11 02:07:16;;;;;;;6.23;3.43;;;12.20;99.90;;;11.27;100.00;96931.16;4896481;29;20518;-75
2023/04/11 02:09:42;;;;;;;5.85;3.33;;;12.00;99.90;;;11.20;100.00;96936.72;4896590;29;20418;-74
2023/04/11 02:12:08;;;;;;;7.00;3.60;;;12.00;99.90;;;11.17;100.00;96945.19;4896172;29;20486;-75
2023/04/11 02:14:43;;;;;;;5.65;3.90;;;12.00;99.90;;;11.23;100.00;96958.16;4896362;29;20421;-75
2023/04/11 02:17:10;;;;;;;6.05;3.88;;;12.00;99.90;;;11.35;100.00;96963.19;4896577;29;20514;-75
2023/04/11 02:19:37;;;;;;;6.72;2.70;;;12.10;99.90;;;11.10;100.00;96981.75;4894880;29;20429;-75
2023/04/11 02:22:03;;;;;;;6.05;2.30;;;11.90;99.90;;;11.11;100.00;96986.78;4896208;29;20410;-75
2023/04/11 02:24:28;;;;;;;4.80;2.42;;;11.90;99.90;;;11.03;100.00;97005.84;4894856;29;20774;-75
2023/04/11 02:26:55;;;;;;;6.65;2.15;;;11.80;99.90;;;10.77;100.00;96996.25;4896227;29;20435;-75
2023/04/11 02:29:21;;;;;;;6.18;2.30;;;11.60;99.90;;;10.59;100.00;97009.97;4896454;29;20842;-74
2023/04/11 02:31:48;;;;;;;3.65;2.10;;;11.50;99.90;;;10.50;100.00;96985.84;4896589;29;20450;-74
2023/04/11 02:34:15;;;;;;;9.00;3.08;;;11.40;99.90;;;10.37;100.00;96979.22;4896314;29;20925;-74
2023/04/11 02:36:42;;;;;;;3.87;2.33;;;11.30;99.90;;;10.20;100.00;96975.94;4895359;29;20421;-74
2023/04/11 02:39:08;;;;;;;6.73;2.57;;;11.20;99.90;;;10.16;100.00;96958.97;4896571;29;20495;-74
2023/04/11 02:41:37;;;;;;;6.45;2.80;;;11.10;99.90;;;10.15;100.00;96962.66;4897313;29;20898;-74
2023/04/11 02:44:04;;;;;;;5.03;2.70;;;11.10;99.90;;;10.07;100.00;96982.44;4897047;29;20419;-73
2023/04/11 02:46:29;;;;;;;8.50;3.47;;;10.90;99.90;;;10.00;100.00;96981.91;4896892;29;20456;-73
2023/04/11 02:48:57;;;;;;;10.48;3.20;;;11.00;99.90;;;9.94;100.00;96979.47;4896243;29;20448;-73
2023/04/11 02:51:23;;;;;;;5.03;2.70;;;10.80;99.90;;;9.81;100.00;96988.69;4896100;29;20435;-73
2023/04/11 02:53:49;;;;;;;6.95;2.80;;;10.80;99.90;;;9.83;100.00;96991.06;4896067;29;20997;-73
2023/04/11 02:56:17;;;;;;;12.65;3.30;;;10.80;99.90;;;9.92;100.00;96994.81;4896178;29;20411;-73
2023/04/11 02:58:43;;;;;;;7.05;3.00;;;10.70;99.90;;;9.81;100.00;96986.03;4896240;29;20426;-73
2023/04/11 03:01:10;;;;;;;8.60;3.50;;;10.70;99.90;;;9.71;100.00;96992.03;4895869;29;20854;-73
2023/04/11 03:03:37;;;;;;;7.18;3.40;;;10.60;99.90;;;9.63;100.00;96989.06;4896124;29;20419;-73
2023/04/11 03:06:06;;;;;;;10.70;3.53;;;10.60;99.90;;;9.60;100.00;96985.13;4894982;29;20427;-74
2023/04/11 03:08:32;;;;;;;11.15;3.38;;;10.50;99.90;;;9.51;100.00;96980.53;4896366;29;20422;-74
2023/04/11 03:10:58;;;;;;;9.20;3.53;;;10.40;99.90;;;9.52;100.00;96984.78;4895851;29;20419;-73
2023/04/11 03:13:25;;;;;;;10.30;3.60;;;10.40;99.90;;;9.57;100.00;96984.81;4895973;29;20510;-74
2023/04/11 03:15:50;;;;;;;12.77;3.55;;;10.50;99.90;;;9.60;100.00;96986.97;4896161;29;20464;-73
2023/04/11 03:18:17;;;;;;;13.50;3.55;;;10.50;99.90;;;9.48;100.00;96991.59;4895885;29;20449;-73
2023/04/11 03:20:43;;;;;;;10.77;3.53;;;10.40;99.90;;;9.46;100.00;96991.88;4895731;29;20414;-74
2023/04/11 03:23:10;;;;;;;10.38;3.72;;;10.40;99.90;;;9.42;100.00;97000.56;4895730;29;20506;-73
2023/04/11 03:25:39;;;;;;;16.13;4.10;;;10.30;99.90;;;9.43;100.00;97002.94;4895855;29;20486;-74
2023/04/11 03:28:05;;;;;;;12.10;3.78;;;10.30;99.90;;;9.37;100.00;96993.41;4895922;29;20415;-74
2023/04/11 03:30:32;;;;;;;9.15;3.42;;;10.30;99.90;;;9.26;100.00;96958.16;4894500;29;20447;-74
2023/04/11 03:33:00;;;;;;;11.30;3.95;;;10.20;99.90;;;9.34;100.00;96959.56;4895658;29;20419;-75
2023/04/11 03:35:27;;;;;;;11.33;3.43;;;10.20;99.90;;;9.19;100.00;96965.50;4895800;29;20482;-74
2023/04/11 03:37:53;;;;;;;10.35;3.72;;;10.20;99.90;;;9.27;100.00;96951.84;4897652;29;20415;-74
2023/04/11 03:40:20;;;;;;;14.68;4.50;;;10.20;99.90;;;9.32;100.00;96953.75;4899467;29;20415;-74
2023/04/11 03:42:46;;;;;;;13.40;4.22;;;10.20;99.90;;;9.30;100.00;96951.34;4899266;29;20418;-74
2023/04/11 03:45:12;;;;;;;16.67;4.40;;;10.20;99.90;;;9.27;100.00;96958.97;4899303;29;20782;-74
2023/04/11 03:47:39;;;;;;;14.30;4.15;;;10.20;99.90;;;9.33;100.00;96961.41;4899333;29;20506;-74
2023/04/11 03:50:06;;;;;;;14.95;4.38;;;10.20;99.90;;;9.28;100.00;96963.22;4898164;29;20451;-74
2023/04/11 03:52:32;;;;;;;14.85;4.68;;;10.20;99.90;;;9.22;100.00;96969.50;4899238;29;20407;-74
2023/04/11 03:54:58;;;;;;;12.93;4.10;;;10.10;99.90;;;9.15;100.00;96974.19;4899339;29;20914;-74
2023/04/11 03:57:26;;;;;;;8.18;3.95;;;10.10;99.90;;;9.10;100.00;96968.84;4899254;29;20414;-74
2023/04/11 03:59:52;;;;;;;12.25;3.80;;;9.90;99.90;;;9.03;100.00;96979.63;4898997;29;20848;-74
2023/04/11 04:02:18;;;;;;;8.73;3.67;;;10.00;99.90;;;9.01;100.00;96999.44;4899283;29;20422;-74
2023/04/11 04:04:45;;;;;;;13.10;4.17;;;9.90;99.90;;;9.06;100.00;96999.47;4899128;29;20443;-73
2023/04/11 04:07:11;;;;;;;17.65;4.07;;;10.00;99.90;;;9.10;100.00;97000.53;4898982;29;20429;-74
2023/04/11 04:09:39;;;;;;;14.75;4.47;;;10.00;99.90;;;9.17;100.00;97007.22;4899145;29;20431;-74
2023/04/11 04:12:06;;;;;;;12.13;4.30;;;10.10;99.90;;;9.24;100.00;96993.81;4898934;29;20433;-74
2023/04/11 04:14:33;;;;;;;18.27;4.93;;;10.10;99.90;;;9.28;100.00;97000.97;4897527;29;20944;-74
2023/04/11 04:16:59;;;;;;;13.50;4.88;;;10.20;99.90;;;9.27;100.00;97012.59;4898887;29;20415;-74
2023/04/11 04:19:25;;;;;;;14.85;4.55;;;10.20;99.90;;;9.20;100.00;96998.81;4899012;29;20425;-74
2023/04/11 04:21:51;;;;;;;14.50;5.30;;;10.20;99.90;;;9.29;100.00;97018.44;4898907;29;20886;-74
2023/04/11 04:24:17;;;;;;;16.05;5.38;;;10.20;99.90;;;9.26;100.00;97026.84;4897277;29;20422;-74
2023/04/11 04:26:44;;;;;;;15.25;4.93;;;10.20;99.90;;;9.15;100.00;97014.59;4897424;29;20431;-74
2023/04/11 04:29:11;;;;;;;17.33;5.15;;;10.10;99.90;;;9.13;100.00;97019.34;4898517;29;20415;-74
2023/04/11 04:31:39;;;;;;;13.35;4.75;;;10.10;99.90;;;9.10;100.00;97022.47;4898486;29;20418;-74
2023/04/11 04:34:09;;;;;;;16.75;5.55;;;10.10;99.90;;;9.17;100.00;97025.69;4898701;29;20418;-74
2023/04/11 04:36:45;;;;;;;15.30;4.75;;;10.10;99.90;;;9.21;100.00;97036.56;4897220;29;20426;-74
2023/04/11 04:39:16;;;;;;;12.32;4.45;;;10.10;99.90;;;9.30;100.00;97058.84;4898540;29;20837;-74
2023/04/11 04:41:43;;;;;;;9.95;3.83;;;10.10;99.90;;;9.21;100.00;97055.84;4898341;29;20423;-74
2023/04/11 04:44:10;;;;;;;8.95;3.10;;;10.10;99.90;;;9.12;100.00;97056.53;4898239;29;20415;-74
2023/04/11 04:46:36;;;;;;;8.15;3.70;;;10.00;99.90;;;9.09;100.00;97072.91;4898389;29;20523;-74
2023/04/11 04:49:04;;;;;;;8.70;3.40;;;10.00;99.90;;;9.01;100.00;97076.78;4898419;29;20490;-74
2023/04/11 04:51:30;;;;;;;11.77;3.40;;;9.80;99.90;;;8.97;100.00;97061.66;4898061;29;20500;-74
2023/04/11 04:53:56;;;;;;;10.60;3.40;;;9.90;99.90;;;8.97;100.00;97073.03;4898065;29;20415;-74
2023/04/11 04:56:22;;;;;;;8.27;3.20;;;9.90;99.90;;;8.94;100.00;97084.09;4898219;29;20977;-74
2023/04/11 04:58:48;;;;;;;9.95;3.60;;;9.80;99.90;;;8.93;100.00;97080.66;4898285;29;20410;-74
2023/04/11 05:01:15;;;;;;;8.77;3.30;;;9.80;99.90;;;8.88;100.00;97085.88;4898458;29;20905;-74
2023/04/11 05:03:43;;;;;;;11.50;3.58;;;9.80;99.90;;;8.81;100.00;97095.81;4898128;29;20418;-74
2023/04/11 05:06:11;;;;;;;7.45;3.38;;;9.80;99.90;;;8.79;100.00;97105.84;4897700;29;21194;-75
2023/04/11 05:08:37;;;;;;;8.38;3.45;;;9.70;99.90;;;8.85;100.00;97115.41;4891370;29;20417;-75
2023/04/11 05:11:03;;;;;;;15.77;3.70;;;9.70;99.90;;;8.70;100.00;97143.44;4887695;29;20555;-75
2023/04/11 05:13:33;;;;;;;13.85;3.65;;;9.60;99.90;;;8.48;100.00;97135.53;4887914;29;20442;-75
2023/04/11 05:15:59;;;;;;;9.27;3.63;;;9.40;99.90;;;8.36;100.00;97148.00;4887082;29;20445;-75
2023/04/11 05:18:28;;;;;;;13.38;3.80;;;9.40;99.90;;;8.30;100.00;97147.09;4887418;29;20538;-75
2023/04/11 05:20:54;;;;;;;11.27;3.63;;;9.20;99.90;;;8.19;100.00;97139.28;4887330;29;20421;-75
2023/04/11 05:23:21;;;;;;;9.10;3.35;;;9.10;99.90;;;8.08;100.00;97147.03;4885181;29;20420;-75
2023/04/11 05:25:47;;;;;;;10.95;3.40;;;9.00;99.90;;;7.99;100.00;97143.19;4892434;29;20429;-75
2023/04/11 05:28:13;;;;;;;13.77;3.97;;;9.00;99.90;;;7.92;100.00;97129.38;4886318;29;20428;-75
2023/04/11 05:30:38;;;;;;;11.17;4.00;;;8.90;99.90;;;7.92;100.00;97118.84;4887494;29;21063;-75
2023/04/11 05:33:04;;;;;;;13.00;3.60;;;8.80;99.90;;;7.91;100.00;97114.63;4888729;29;20422;-74
2023/04/11 05:35:30;;;;;;;14.35;3.83;;;8.80;99.90;;;7.79;100.00;97113.91;4887640;29;20775;-75
2023/04/11 05:37:57;;;;;;;16.25;4.30;;;8.70;99.90;;;7.74;100.00;97119.88;4889118;29;20475;-74
2023/04/11 05:40:24;;;;;;;17.13;4.30;;;8.60;99.90;;;7.59;100.00;97124.13;4886416;29;20412;-74
2023/04/11 05:42:50;;;;;;;16.83;4.15;;;8.40;99.90;;;7.49;100.00;97108.13;4887422;29;20415;-74
2023/04/11 05:45:16;;;;;;;14.15;3.95;;;8.40;99.90;;;7.38;100.00;97107.16;4888155;29;20426;-74
2023/04/11 05:47:42;;;;;;;15.20;3.90;;;8.40;99.90;;;7.45;100.00;97126.22;4886465;29;20475;-75
2023/04/11 05:50:09;;;;;;;12.80;4.13;;;8.40;99.90;;;7.41;100.00;97113.78;4885109;29;20465;-75
2023/04/11 05:52:35;;;;;;;15.77;3.90;;;8.40;99.90;;;7.42;100.00;97108.28;4878343;29;20823;-74
2023/04/11 05:55:01;;;;;;;19.80;4.38;;;8.40;99.90;;;7.56;100.00;97119.31;4878387;29;20445;-74
2023/04/11 05:57:28;;;;;;;10.25;4.28;;;8.50;99.90;;;7.63;100.00;97122.59;4878457;29;20457;-75
2023/04/11 05:59:54;;;;;;;16.80;4.60;;;8.50;99.90;;;7.62;100.00;97124.44;4876359;29;20420;-75
2023/04/11 06:02:20;;;;;;;11.45;3.70;;;8.50;99.90;;;7.63;100.00;97133.94;4878619;29;20417;-74
2023/04/11 06:04:46;;;;;;;15.63;4.35;;;8.60;99.90;;;7.53;100.00;97135.59;4878191;29;20500;-74
2023/04/11 06:07:12;;;;;;;12.98;4.38;;;8.50;99.90;;;7.53;100.00;97130.31;4878215;29;20859;-75
2023/04/11 06:09:41;;;;;;;12.73;4.30;;;8.50;99.90;;;7.56;100.00;97132.50;4877991;29;20903;-75
2023/04/11 06:12:07;;;;;;;10.27;3.85;;;8.50;99.90;;;7.58;100.00;97138.31;4878000;29;20412;-75
2023/04/11 06:14:34;;;;;;;14.02;4.28;;;8.50;99.90;;;7.64;100.00;97137.38;4878146;29;20499;-74
2023/04/11 06:17:00;;;;;;;12.15;4.00;;;8.50;99.90;;;7.48;100.00;97132.88;4878112;29;20416;-73
2023/04/11 06:19:26;;;;;;;16.80;4.10;;;8.40;99.90;;;7.57;100.00;97129.63;4889664;29;20774;-76
2023/04/11 06:21:52;;;;;;;13.65;4.15;;;8.50;99.90;;;7.70;100.00;97139.84;4896863;29;20415;-75
2023/04/11 06:24:33;;;;;;;17.17;3.90;;;8.60;99.90;;;7.70;100.00;97142.47;4896542;29;21133;-74
2023/04/11 06:26:59;;;;;;;15.43;4.05;;;8.60;99.90;;;7.67;100.00;97148.22;4892419;29;20919;-73
2023/04/11 06:29:25;;;;;;;9.90;4.00;;;8.60;99.90;;;7.78;100.00;97146.56;4886519;29;20503;-74
2023/04/11 06:31:53;;;;;;;9.23;3.60;;;8.60;99.90;;;7.74;100.00;97146.22;4883608;29;20883;-75
2023/04/11 06:34:18;;;;;;;12.05;3.85;;;8.70;99.90;;;7.74;100.00;97148.09;4886623;29;20425;-74
2023/04/11 06:36:46;;;;;;;14.67;4.30;;;8.60;99.90;;;7.75;100.00;97168.91;4888382;29;20430;-72
2023/04/11 06:39:12;;;;;;;11.10;3.85;;;8.60;99.90;;;7.74;100.00;97175.19;4896546;29;20419;-72
2023/04/11 06:41:38;;;;;;;19.38;4.28;;;8.70;99.90;;;7.69;100.00;97188.31;4895832;29;20423;-72
2023/04/11 06:44:04;;;;;;;12.23;3.60;;;8.60;99.90;;;7.72;100.00;97177.31;4895959;29;20808;-72
2023/04/11 06:46:30;;;;;;;10.57;3.63;;;8.60;99.90;;;7.74;100.00;97172.56;4895857;29;20430;-72
2023/04/11 06:48:57;;;;;;;16.48;4.07;;;8.70;99.90;;;7.81;100.00;97185.63;4895628;29;20498;-73
2023/04/11 06:51:23;;;;;;;10.10;3.65;;;8.70;99.90;;;7.80;100.00;97189.28;4895252;29;20498;-73
2023/04/11 06:53:51;;;;;;;14.50;4.00;;;8.70;99.90;;;7.86;100.00;97185.69;4895239;29;20490;-73
2023/04/11 06:56:17;;;;;;;11.73;3.67;;;8.70;99.90;;;7.90;100.00;97192.06;4895738;29;20411;-72
2023/04/11 06:58:43;;;;;;;9.85;3.65;;;8.80;99.90;;;7.91;100.00;97196.31;4887949;29;20526;-74
2023/04/11 07:01:09;;;;;;;17.85;3.60;;;8.80;99.90;;;8.08;100.00;97206.88;4881688;29;20423;-74
2023/04/11 07:03:35;;;;;;;13.43;3.83;;;8.90;99.90;;;7.98;100.00;97182.97;4894959;29;20450;-74
2023/04/11 07:06:03;;;;;;;16.23;4.10;;;8.90;99.90;;;7.90;100.00;97193.91;4887578;29;20502;-74
2023/04/11 07:08:29;;;;;;;12.68;3.60;;;8.80;99.90;;;7.90;100.00;97196.53;4889699;29;20415;-74
2023/04/11 07:10:55;;;;;;;12.75;4.07;;;8.80;99.90;;;7.99;100.00;97203.03;4882465;29;21071;-74
2023/04/11 07:13:21;;;;;;;11.65;3.67;;;8.80;99.90;;;7.98;100.00;97201.41;4891464;29;20482;-74
2023/04/11 07:15:47;;;;;;;14.57;3.77;;;8.90;99.90;;;8.29;100.00;97210.63;4880965;29;20421;-74
2023/04/11 07:18:13;;;;;;;16.87;3.70;;;9.10;99.90;;;8.16;100.00;97219.66;4888231;29;20423;-74
2023/04/11 07:20:39;;;;;;;13.33;3.37;;;8.90;99.90;;;8.06;100.00;97227.38;4887613;29;20889;-74
2023/04/11 07:23:07;;;;;;;13.05;3.50;;;8.90;99.90;;;8.25;100.00;97226.13;4893340;29;20444;-75
2023/04/11 07:25:33;;;;;;;14.18;4.00;;;9.20;99.90;;;8.33;100.00;97227.59;4891696;29;20443;-74
2023/04/11 07:27:59;;;;;;;13.80;3.75;;;9.20;99.90;;;8.35;100.00;97239.50;4892226;29;20956;-74
2023/04/11 07:30:27;;;;;;;13.80;3.40;;;9.20;99.90;;;8.41;100.00;97238.56;4891139;29;20433;-75
2023/04/11 07:32:53;;;;;;;15.60;3.42;;;9.30;99.90;;;8.44;100.00;97243.34;4889703;29;20450;-74
2023/04/11 07:35:19;;;;;;;11.65;3.40;;;9.30;99.90;;;8.56;100.00;97251.19;4895998;29;20475;-75
2023/04/11 07:37:46;;;;;;;17.40;5.00;;;9.40;99.90;;;8.77;100.00;97245.16;4894951;29;20491;-74
2023/04/11 07:40:14;;;;;;;13.95;4.20;;;9.70;99.90;;;8.72;100.00;97247.69;4894814;29;20498;-75
2023/04/11 07:42:40;;;;;;;16.20;3.90;;;9.50;99.90;;;8.81;100.00;97243.63;4894808;29;20775;-74
2023/04/11 07:45:07;;;;;;;17.80;4.47;;;9.70;99.90;;;9.00;100.00;97248.63;4894840;29;20447;-75
2023/04/11 07:47:33;;;;;;;15.07;4.05;;;9.80;99.90;;;9.10;100.00;97244.25;4894710;29;20426;-75
2023/04/11 07:49:59;;;;;;;12.63;3.30;;;9.90;99.90;;;9.25;100.00;97247.09;4894686;29;20429;-75
2023/04/11 07:52:25;;;;;;;18.93;3.50;;;10.10;99.90;;;9.43;100.00;97253.91;4894804;29;20493;-77
2023/04/11 07:54:51;;;;;;;13.75;3.60;;;10.20;99.90;;;9.47;100.00;97254.25;4896593;29;20886;-76
2023/04/11 07:57:18;;;;;;;16.88;3.30;;;10.30;99.90;;;9.44;100.00;97244.16;4894729;29;20415;-77
2023/04/11 07:59:45;;;;;;;21.60;4.30;;;10.20;99.90;;;9.67;100.00;97247.31;4892597;29;20470;-75
2023/04/11 08:02:11;;;;;;;14.90;3.42;;;10.50;99.90;;;9.76;100.00;97244.25;4894095;29;20415;-76
2023/04/11 08:04:36;;;;;;;18.90;4.20;;;10.50;99.90;;;9.92;100.00;97259.97;4894997;29;20467;-76
2023/04/11 08:07:02;;;;;;;22.70;3.97;;;10.70;99.90;;;9.92;100.00;97267.91;4894986;29;20462;-76
2023/04/11 08:09:29;;;;;;;14.13;3.50;;;10.70;99.90;;;9.94;100.00;97259.75;4894958;29;20858;-76
2023/04/11 08:11:58;;;;;;;16.77;3.10;;;10.70;99.90;;;9.88;100.00;97266.84;4894948;29;20423;-75
2023/04/11 08:14:25;;;;;;;17.40;3.83;;;10.70;99.90;;;9.87;100.00;97249.38;4892583;29;20470;-74
2023/04/11 08:16:51;;;;;;;16.75;3.50;;;10.70;99.90;;;9.92;100.00;97265.28;4895263;29;20418;-74
2023/04/11 08:19:17;;;;;;;17.73;3.15;;;10.70;99.90;;;9.77;100.00;97269.63;4895331;29;20422;-75
2023/04/11 08:21:43;;;;;;;23.50;3.53;;;10.50;99.90;;;9.70;100.00;97256.59;4895001;29;20422;-72
2023/04/11 08:24:09;;;;;;;16.40;3.28;;;10.50;99.90;;;9.92;100.00;97267.16;4897128;29;20422;-72
2023/04/11 08:26:35;;;;;;;18.25;4.10;;;10.60;99.90;;;9.71;100.00;97280.13;4898449;29;20439;-73
2023/04/11 08:29:02;;;;;;;21.80;4.27;;;10.50;99.90;;;9.62;100.00;97273.69;4897830;29;20419;-74
2023/04/11 08:31:31;;;;;;;19.48;3.00;;;10.30;99.90;;;9.60;100.00;97277.63;4898208;29;20415;-75
2023/04/11 08:33:57;;;;;;;16.20;3.10;;;10.40;99.90;;;9.68;100.00;97272.72;4897848;29;20415;-74
2023/04/11 08:36:22;;;;;;;18.57;3.27;;;10.40;99.90;;;9.84;100.00;97267.59;4898238;29;20438;-75
2023/04/11 08:38:48;;;;;;;14.10;3.30;;;10.60;99.90;;;9.93;100.00;97263.44;4897619;29;20506;-74
2023/04/11 08:41:14;;;;;;;19.65;3.33;;;10.70;99.90;;;9.73;100.00;97271.97;4892341;29;20423;-75
2023/04/11 08:43:40;;;;;;;10.90;2.40;;;10.50;99.90;;;9.90;100.00;97279.81;4894541;29;20548;-75
2023/04/11 08:46:07;;;;;;;14.05;2.60;;;10.70;99.90;;;9.80;100.00;97272.56;4893541;29;20445;-75
2023/04/11 08:48:34;;;;;;;15.52;2.97;;;10.50;99.90;;;10.10;100.00;97278.16;4890755;29;20419;-74
2023/04/11 08:51:00;;;;;;;14.57;2.47;;;10.80;99.90;;;9.94;100.00;97272.97;4890555;29;20413;-75
2023/04/11 08:53:28;;;;;;;8.50;2.80;;;10.60;99.90;;;9.94;100.00;97272.97;4897130;29;20426;-75
2023/04/11 08:55:54;;;;;;;12.10;2.33;;;10.70;99.90;;;10.07;100.00;97264.66;4893506;29;20479;-75
2023/04/11 08:58:20;;;;;;;9.38;2.60;;;10.80;99.90;;;10.40;100.00;97264.44;4896089;29;20431;-75
2023/04/11 09:00:45;;;;;;;11.88;2.45;;;11.10;99.90;;;10.20;100.00;97274.03;4893068;29;21017;-75
2023/04/11 09:03:16;;;;;;;9.07;2.38;;;11.00;99.90;;;10.54;100.00;97275.38;4897047;29;20419;-75
2023/04/11 09:05:47;;;;;;;9.82;2.60;;;11.20;99.90;;;10.67;100.00;97290.06;4893601;29;20450;-75
2023/04/11 09:08:15;;;;;;;18.88;3.00;;;11.30;99.90;;;10.81;100.00;97272.69;4893460;29;20411;-75
2023/04/11 09:10:44;;;;;;;11.63;2.80;;;11.50;99.90;;;10.68;100.00;97278.38;4896541;29;20415;-75
2023/04/11 09:13:20;;;;;;;10.35;2.88;;;11.40;99.90;;;10.78;100.00;97276.63;4894551;29;20423;-75
2023/04/11 09:15:46;;;;;;;11.75;2.85;;;11.40;99.90;;;10.81;100.00;97284.06;4896263;29;20499;-74
2023/04/11 09:18:31;;;;;;;12.73;2.35;;;11.50;99.90;;;10.35;100.00;97280.28;4894534;29;20413;-75
2023/04/11 09:21:03;;;;;;;6.88;2.63;;;11.20;99.90;;;10.38;100.00;97274.47;4891404;29;20403;-75
2023/04/11 09:23:29;;;;;;;9.48;2.38;;;11.10;99.90;;;10.17;100.00;97275.34;4896470;29;20416;-75
2023/04/11 09:25:56;;;;;;;7.55;2.10;;;11.00;99.90;;;10.27;100.00;97266.69;4895290;29;20407;-75
2023/04/11 09:28:22;;;;;;;8.57;2.42;;;10.90;99.90;;;10.52;100.00;97272.22;4893540;29;20418;-75
2023/04/11 09:30:50;;;;;;;8.88;2.22;;;11.20;99.90;;;10.59;100.00;97274.63;4893943;29;20834;-75
2023/04/11 09:33:21;;;;;;;9.35;2.63;;;11.40;99.90;;;10.88;100.00;97278.56;4893893;29;20421;-75
2023/04/11 09:35:49;;;;;;;7.72;2.35;;;11.60;99.90;;;11.08;100.00;97281.31;4891280;29;20897;-75
2023/04/11 09:38:27;;;;;;;9.50;2.35;;;11.80;99.90;;;11.15;100.00;97295.13;4892992;29;20421;-74
2023/04/11 09:40:54;;;;;;;8.13;2.33;;;11.90;99.90;;;11.05;100.00;97289.75;4889122;29;20906;-74
2023/04/11 09:43:19;;;;;;;10.23;2.45;;;11.80;99.90;;;11.35;100.00;97289.13;4894144;29;20423;-73
2023/04/11 09:45:45;;;;;;;11.03;2.70;;;12.00;99.90;;;11.21;100.00;97291.44;4893245;29;20520;-73
2023/04/11 09:48:12;;;;;;;12.47;2.90;;;12.00;99.90;;;11.15;100.00;97281.09;4893395;29;20428;-74
2023/04/11 09:50:38;;;;;;;11.38;2.80;;;11.90;99.90;;;11.10;100.00;97268.63;4891906;29;20414;-74
2023/04/11 09:53:05;;;;;;;13.82;2.42;;;11.90;99.90;;;10.97;100.00;97271.72;4893542;29;20415;-74
2023/04/11 09:55:32;;;;;;;10.13;2.25;;;11.70;99.90;;;11.11;100.00;97262.28;4895221;29;20423;-75
2023/04/11 09:57:58;;;;;;;13.23;2.77;;;11.90;99.90;;;11.25;100.00;97259.94;4888783;29;20423;-74
2023/04/11 10:00:31;;;;;;;9.55;2.45;;;12.00;99.90;;;11.27;100.00;97262.34;4888800;29;20422;-74
2023/04/11 10:02:57;;;;;;;8.53;2.30;;;12.00;99.90;;;11.38;100.00;97271.91;4892227;29;20495;-74
2023/04/11 10:05:26;;;;;;;10.82;2.50;;;12.10;99.90;;;11.64;100.00;97265.69;4893956;29;20897;-74
2023/04/11 10:08:02;;;;;;;13.00;2.50;;;12.30;99.90;;;11.61;100.00;97261.69;4885551;29;20889;-75
2023/04/11 10:10:28;;;;;;;13.02;2.25;;;12.40;99.90;;;12.00;100.00;97262.09;4893062;29;20972;-74
2023/04/11 10:12:56;;;;;;;6.15;2.08;;;12.70;99.90;;;12.16;100.00;97256.78;4892860;29;20411;-75
2023/04/11 10:15:22;;;;;;;7.80;2.30;;;12.90;99.90;;;12.11;100.00;97257.56;4894582;29;20415;-75